Key West International Airport Key West US
ICAO: KEYW
IATA: EYW
Category: Medium
Scheduled Services: Yes

Elevation: 3 ft
TransAlt. 18000 ft.

Airport Communications:
NAVY KEY WEST:124.45
ASOS:119.65
ATIS:119.675
CLNC DEL:121.9
CTAF:118.2
MIAMI RDO:122.2
GND:121.9
TWR:118.2
UNICOM:122.95

KEYW Zoom In..

If you have problems with the map follow the link
https://www.worldairports.se/pages/airport.php?
ICAO=KEYW

Runways:

(A) RW 09 length 4801 ft width 100 ft
---- / hdg 93

(B) RW 27 length 4801 ft width 100 ft
---- / hdg 273

Location; KEYW
Day. 19 / Time. 01.53 Zulu
* Altimeter: 30.19
* Temperature: 24° c. 75.2°f.
* Wind from: 100° Speed 10 kn.
Dewpoint: 17° c.
Visibility: 10 Statute Miles.
Clouds: Clear (automated report).

KEYW 190153Z AUTO 10010KT 10SM CLR 24/17 A3019 RMK AO2 SLP223 T02440172


Wind From 100°
Speed 10 kn.

 
 
jpsmedia worldairports.se 2020   terms of use